Terminal Aerodrome Forecast
Issued by NWS

Home | Current Version | Previous Version | Text Only | Print | Product List | Glossary On
Versions: 1 2 3 4 5 6 7 8 9 10 11 12 13
000
FTUS45 KFGZ 271100
TAFGCN
TAF
KGCN 271138Z 2712/2812 VRB03KT P6SM SCT080
     FM271700 24008G15KT P6SM SCT050 OVC080
      TEMPO 2719/2723 23011G22KT 4SM -SHSN BR SCT020 BKN030
     FM272300 25010KT 5SM -SHSNRA SCT030 OVC040=

USA.gov is the U.S. government's official web portal to all federal, state and local government web resources and services.